Time;durP1;ratioP1;P1;durP2;ratioP2;P2;SDS_P1;SDS_P2;PMS_P1;PMS_P2;Temp;Humidity;BMP_temperature;BMP_pressure;BME280_temperature;BME280_humidity;BME280_pressure;Samples;Min_cycle;Max_cycle;Signal;HPM_P1;HPM_P2
2022/06/16 00:02:03;;;;;;;3.13;2.93;;;;;;;14.83;68.16;100664.22;5054984;28;20215;-76
2022/06/16 00:04:30;;;;;;;3.67;3.37;;;;;;;14.80;68.47;100643.28;5054553;28;20209;-76
2022/06/16 00:06:59;;;;;;;3.40;3.10;;;;;;;14.94;67.78;100633.16;5053993;28;20251;-76
2022/06/16 00:09:26;;;;;;;3.63;3.30;;;;;;;14.98;67.92;100636.53;5054571;28;20266;-76
2022/06/16 00:11:54;;;;;;;3.60;3.30;;;;;;;14.82;68.41;100649.34;5053833;28;20204;-76
2022/06/16 00:14:23;;;;;;;5.73;3.40;;;;;;;14.65;68.96;100642.03;5054424;28;20728;-76
2022/06/16 00:16:49;;;;;;;3.53;3.30;;;;;;;14.62;68.60;100635.09;5054258;28;20640;-76
2022/06/16 00:19:16;;;;;;;4.73;3.60;;;;;;;14.58;68.67;100636.09;5054426;28;20221;-76
2022/06/16 00:21:42;;;;;;;4.73;3.00;;;;;;;14.88;67.39;100634.25;5054141;28;20233;-76
2022/06/16 00:24:09;;;;;;;4.90;2.83;;;;;;;15.16;66.57;100659.56;5054214;28;20254;-76
2022/06/16 00:26:35;;;;;;;3.17;2.90;;;;;;;15.20;66.04;100681.38;5054401;28;20256;-76
2022/06/16 00:29:02;;;;;;;3.37;3.07;;;;;;;15.09;65.94;100701.00;5054198;28;20219;-76
2022/06/16 00:31:30;;;;;;;3.80;3.27;;;;;;;15.06;65.46;100716.91;5054364;28;20219;-76
2022/06/16 00:33:56;;;;;;;4.07;3.67;;;;;;;14.83;66.11;100714.16;5054079;28;20697;-76
2022/06/16 00:36:24;;;;;;;3.30;3.00;;;;;;;14.67;67.26;100701.50;5054038;28;20232;-76
2022/06/16 00:38:50;;;;;;;3.07;2.87;;;;;;;14.62;67.32;100671.00;5053239;28;20250;-76
2022/06/16 00:41:17;;;;;;;4.60;3.27;;;;;;;14.56;67.51;100660.69;5053227;28;20211;-76
2022/06/16 00:43:43;;;;;;;3.50;3.20;;;;;;;14.81;67.36;100661.63;5054163;28;20615;-76
2022/06/16 00:46:13;;;;;;;3.47;2.70;;;;;;;15.03;66.48;100653.03;5053889;28;20278;-76
2022/06/16 00:48:44;;;;;;;4.00;3.03;;;;;;;14.94;65.29;100683.09;5053726;28;20204;-76
2022/06/16 00:51:15;;;;;;;3.87;3.17;;;;;;;15.06;65.71;100689.72;5053815;28;20670;-76
2022/06/16 00:53:42;;;;;;;2.80;2.60;;;;;;;15.25;65.30;100689.97;5053406;28;20250;-76
2022/06/16 00:56:12;;;;;;;3.00;2.80;;;;;;;15.23;63.91;100720.72;5053699;28;20232;-76
2022/06/16 00:58:41;;;;;;;3.37;3.07;;;;;;;14.97;64.98;100729.47;5053517;28;20212;-76
2022/06/16 01:01:09;;;;;;;2.80;2.60;;;;;;;14.95;65.31;100720.78;5053617;28;20208;-76
2022/06/16 01:06:23;;;;;;;3.40;3.10;;;;;;;14.44;66.42;100712.69;5053506;28;20219;-76
2022/06/16 01:08:52;;;;;;;3.50;3.20;;;;;;;14.22;67.60;100680.97;5053514;28;20200;-76
2022/06/16 01:14:20;;;;;;;4.63;3.37;;;;;;;14.06;69.10;100656.94;5030725;28;20561;-76
2022/06/16 01:16:48;;;;;;;3.60;3.30;;;;;;;13.93;69.56;100639.81;5053281;28;20226;-76
2022/06/16 01:19:35;;;;;;;3.00;2.63;;;;;;;14.16;68.86;100620.75;5053061;28;20697;-76
2022/06/16 01:22:09;;;;;;;5.17;2.83;;;;;;;14.36;68.05;100638.53;5053483;28;20204;-76
2022/06/16 01:24:54;;;;;;;3.87;3.03;;;;;;;14.46;67.68;100674.09;5053289;28;20201;-76
2022/06/16 01:27:42;;;;;;;4.17;3.67;;;;;;;14.08;68.59;100709.41;5053368;28;20223;-76
2022/06/16 01:30:14;;;;;;;3.97;3.50;;;;;;;13.77;70.23;100680.53;5052674;28;20211;-75
2022/06/16 01:32:50;;;;;;;4.70;3.80;;;;;;;13.63;70.55;100658.16;5053379;28;20196;-76
2022/06/16 01:35:28;;;;;;;4.00;3.70;;;;;;;13.46;71.79;100614.06;5052920;28;20706;-76
2022/06/16 01:38:03;;;;;;;4.37;3.93;;;;;;;13.66;71.48;100575.94;5052504;28;20186;-76
2022/06/16 01:40:37;;;;;;;3.60;3.27;;;;;;;14.06;70.21;100574.72;5052912;28;20597;-76
2022/06/16 01:43:11;;;;;;;3.57;3.27;;;;;;;14.38;69.32;100599.09;5053017;28;20248;-76
2022/06/16 01:45:44;;;;;;;3.97;2.73;;;;;;;14.65;68.68;100613.13;5052975;28;20257;-76
2022/06/16 01:48:14;;;;;;;3.80;3.03;;;;;;;14.88;67.56;100638.63;5052846;28;20200;-76
2022/06/16 01:50:45;;;;;;;2.57;2.37;;;;;;;15.04;66.35;100655.63;5052374;28;20561;-76
2022/06/16 01:53:16;;;;;;;4.27;3.50;;;;;;;15.19;64.79;100709.44;5052528;28;20208;-76
2022/06/16 01:55:50;;;;;;;3.23;3.03;;;;;;;15.26;64.67;100734.63;5052665;28;20227;-76
2022/06/16 01:58:21;;;;;;;3.47;3.17;;;;;;;15.35;63.40;100753.66;5052876;28;20200;-76
2022/06/16 02:00:51;;;;;;;3.40;3.20;;;;;;;14.76;64.48;100807.22;5052069;28;20651;-76
2022/06/16 02:03:23;;;;;;;3.70;3.40;;;;;;;14.31;66.19;100790.13;5052090;28;20217;-76
2022/06/16 02:05:53;;;;;;;3.20;2.90;;;;;;;14.10;67.75;100750.44;5052559;28;20799;-76
2022/06/16 02:08:26;;;;;;;3.90;2.93;;;;;;;13.96;68.72;100723.72;5052096;28;20585;-76
2022/06/16 02:10:55;;;;;;;3.33;3.13;;;;;;;13.96;68.59;100694.84;5052229;28;20287;-76
2022/06/16 02:13:26;;;;;;;3.60;3.30;;;;;;;13.84;69.19;100680.31;5052458;28;20212;-76
2022/06/16 02:15:59;;;;;;;3.77;3.47;;;;;;;13.68;69.35;100664.16;5052414;28;20247;-76
2022/06/16 02:18:29;;;;;;;4.10;3.57;;;;;;;13.87;68.94;100656.63;5052596;28;20192;-76
2022/06/16 02:21:00;;;;;;;3.50;3.17;;;;;;;13.97;68.77;100672.09;5052160;28;20211;-76
2022/06/16 02:23:27;;;;;;;3.73;3.43;;;;;;;13.47;70.55;100672.63;5051612;28;20210;-76
2022/06/16 02:25:56;;;;;;;3.60;3.40;;;;;;;13.36;70.93;100622.22;5052325;28;20230;-76
2022/06/16 02:28:23;;;;;;;3.97;3.47;;;;;;;13.45;70.71;100607.09;5052259;28;20207;-76
2022/06/16 02:31:16;;;;;;;3.20;3.00;;;;;;;13.68;70.56;100631.81;5051841;28;20683;-76
2022/06/16 02:33:55;;;;;;;3.10;2.90;;;;;;;13.61;70.29;100651.25;5052111;28;20201;-76
2022/06/16 02:36:38;;;;;;;3.40;3.10;;;;;;;13.52;70.70;100636.66;5051016;28;20722;-76
2022/06/16 02:39:17;;;;;;;3.97;3.00;;;;;;;13.54;70.97;100645.34;5051618;28;20211;-76
2022/06/16 02:41:54;;;;;;;3.83;3.53;;;;;;;13.39;71.45;100646.59;5051844;28;20683;-76
2022/06/16 02:44:29;;;;;;;4.50;3.23;;;;;;;13.30;72.63;100621.50;5051909;28;20206;-76
2022/06/16 02:47:02;;;;;;;3.57;3.27;;;;;;;13.45;71.45;100611.50;5051840;28;20235;-76
2022/06/16 02:49:40;;;;;;;3.00;2.70;;;;;;;13.75;70.65;100611.50;5051867;28;20199;-76
2022/06/16 02:52:15;;;;;;;2.90;2.70;;;;;;;13.70;70.05;100657.09;5051861;28;20213;-76
2022/06/16 02:54:46;;;;;;;3.77;3.47;;;;;;;13.37;71.29;100655.41;5051646;28;20197;-76
2022/06/16 02:57:19;;;;;;;3.37;3.07;;;;;;;13.33;71.44;100631.03;5051519;28;20597;-76
2022/06/16 02:59:48;;;;;;;3.70;3.40;;;;;;;13.46;71.13;100634.19;5051785;28;20192;-76
2022/06/16 03:02:19;;;;;;;3.50;2.73;;;;;;;13.65;70.46;100634.53;5051913;28;20216;-76
2022/06/16 03:04:49;;;;;;;5.27;2.70;;;;;;;13.81;71.22;100632.31;5051387;28;20719;-76
2022/06/16 03:07:16;;;;;;;4.00;2.70;;;;;;;13.99;71.05;100623.88;5051294;28;20221;-76
2022/06/16 03:09:43;;;;;;;2.90;2.70;;;;;;;14.10;69.79;100645.44;5051272;28;20214;-76
2022/06/16 03:12:12;;;;;;;4.47;3.10;;;;;;;14.02;69.04;100689.44;5051750;28;20211;-76
2022/06/16 03:14:39;;;;;;;3.30;3.00;;;;;;;13.83;68.99;100696.97;5051597;28;20705;-76
2022/06/16 03:17:07;;;;;;;3.17;2.73;;;;;;;13.94;69.45;100695.81;5051385;28;20234;-76
2022/06/16 03:19:35;;;;;;;3.50;3.20;;;;;;;13.93;69.31;100694.94;5051128;28;20214;-76
2022/06/16 03:22:03;;;;;;;3.17;2.83;;;;;;;14.09;69.01;100692.72;5051594;28;20312;-76
2022/06/16 03:24:29;;;;;;;3.50;2.90;;;;;;;14.23;68.07;100664.31;5051264;28;20286;-76
2022/06/16 03:26:56;;;;;;;3.23;3.00;;;;;;;14.38;67.55;100691.00;5051517;28;20231;-75
2022/06/16 03:29:23;;;;;;;3.57;3.27;;;;;;;14.32;67.35;100728.81;5051305;28;20232;-77
2022/06/16 03:31:49;;;;;;;4.10;3.43;;;;;;;14.13;67.84;100751.25;5051642;28;20211;-76
2022/06/16 03:34:16;;;;;;;3.27;2.97;;;;;;;13.60;69.86;100729.09;5051361;28;20212;-76
2022/06/16 03:36:43;;;;;;;3.73;3.30;;;;;;;13.48;70.95;100682.22;5051140;28;20239;-76
2022/06/16 03:39:10;;;;;;;3.47;3.10;;;;;;;13.43;71.33;100666.59;5050884;28;20214;-76
2022/06/16 03:41:36;;;;;;;3.57;3.10;;;;;;;13.53;72.23;100650.63;5051419;28;20280;-76
2022/06/16 03:44:03;;;;;;;3.33;2.90;;;;;;;13.25;72.42;100649.56;5051662;28;20195;-76
2022/06/16 03:46:30;;;;;;;3.93;3.00;;;;;;;13.21;73.22;100626.09;5051856;28;20235;-76
2022/06/16 03:48:56;;;;;;;3.63;3.37;;;;;;;13.12;73.71;100598.34;5054759;28;20671;-76
2022/06/16 03:51:22;;;;;;;2.83;2.63;;;;;;;13.39;73.14;100582.81;5055216;28;20207;-76
2022/06/16 03:53:50;;;;;;;4.93;3.40;;;;;;;13.57;71.71;100612.91;5054852;28;20278;-76
2022/06/16 03:56:17;;;;;;;4.67;3.90;;;;;;;13.24;72.87;100642.63;5054663;28;20287;-76
2022/06/16 03:58:43;;;;;;;4.00;3.70;;;;;;;13.24;73.30;100611.16;5054701;28;20205;-76
2022/06/16 04:01:10;;;;;;;3.23;2.90;;;;;;;13.40;72.98;100603.75;5054696;28;20212;-76
2022/06/16 04:06:21;;;;;;;3.60;3.10;;;;;;;13.74;71.61;100625.56;5054566;28;20727;-76
2022/06/16 04:08:48;;;;;;;4.27;3.33;;;;;;;13.82;71.28;100645.41;5054425;28;20203;-76
2022/06/16 04:11:28;;;;;;;5.73;2.77;;;;;;;14.00;70.95;100666.75;5054578;28;20207;-76
2022/06/16 04:13:55;;;;;;;4.43;2.60;;;;;;;13.72;71.34;100677.22;5054651;28;20215;-76
2022/06/16 04:16:21;;;;;;;3.77;2.80;;;;;;;13.47;72.56;100672.63;5054198;28;20287;-76
2022/06/16 04:18:48;;;;;;;6.10;3.63;;;;;;;13.14;73.87;100633.28;5054306;28;20207;-76
2022/06/16 04:21:15;;;;;;;3.03;2.70;;;;;;;13.29;74.31;100596.16;5054688;28;20220;-76
2022/06/16 04:23:41;;;;;;;4.63;3.03;;;;;;;13.34;74.12;100592.56;5054159;28;20240;-76
2022/06/16 04:26:08;;;;;;;4.13;3.73;;;;;;;12.99;75.17;100597.84;5054591;28;20238;-76
2022/06/16 04:28:35;;;;;;;3.90;3.50;;;;;;;12.92;75.45;100572.69;5054210;28;20595;-76
2022/06/16 04:31:02;;;;;;;4.00;3.60;;;;;;;13.02;75.51;100560.19;5054045;28;20272;-76
2022/06/16 04:33:29;;;;;;;4.20;3.80;;;;;;;13.29;74.86;100569.06;5054057;28;20690;-76
2022/06/16 04:35:55;;;;;;;4.13;3.40;;;;;;;13.60;74.18;100576.09;5054452;28;20234;-76
2022/06/16 04:38:22;;;;;;;5.43;3.60;;;;;;;13.77;72.90;100615.78;5053528;28;20278;-77
2022/06/16 04:40:48;;;;;;;3.83;3.50;;;;;;;13.90;72.28;100643.41;5054120;28;20282;-76
2022/06/16 04:43:17;;;;;;;4.63;3.27;;;;;;;14.02;72.28;100650.06;5054004;28;20635;-76
2022/06/16 04:45:45;;;;;;;4.30;4.00;;;;;;;13.80;72.80;100659.47;5053988;28;20316;-76
2022/06/16 04:48:12;;;;;;;4.90;3.90;;;;;;;13.94;72.54;100667.81;5054178;28;20200;-76
2022/06/16 04:50:39;;;;;;;4.80;3.77;;;;;;;13.72;74.19;100646.56;5053659;28;20561;-76
2022/06/16 04:53:06;;;;;;;4.43;4.03;;;;;;;13.84;74.44;100629.63;5053271;28;20258;-76
2022/06/16 04:55:34;;;;;;;4.40;3.57;;;;;;;13.65;75.17;100614.38;5053931;28;20543;-76
2022/06/16 04:58:00;;;;;;;3.77;3.47;;;;;;;13.67;75.22;100602.09;5053046;28;20644;-76
2022/06/16 05:00:27;;;;;;;4.50;4.10;;;;;;;13.34;75.92;100592.56;5053416;28;20253;-76
2022/06/16 05:02:55;;;;;;;3.87;3.57;;;;;;;13.31;76.84;100568.16;5053479;28;20622;-76
2022/06/16 05:05:21;;;;;;;5.53;3.90;;;;;;;13.22;78.24;100542.19;5053552;28;20725;-76
2022/06/16 05:07:48;;;;;;;4.10;3.73;;;;;;;13.09;78.97;100517.22;5047623;28;20619;-76
2022/06/16 05:10:14;;;;;;;5.37;3.93;;;;;;;13.07;78.97;100509.38;5043205;28;20256;-76
2022/06/16 05:12:41;;;;;;;4.70;4.20;;;;;;;13.11;79.60;100495.28;5051226;28;20241;-76
2022/06/16 05:15:08;;;;;;;4.80;4.20;;;;;;;13.25;79.53;100492.28;5046238;28;20207;-76
2022/06/16 05:17:35;;;;;;;4.50;4.10;;;;;;;13.49;78.80;100516.94;5041501;28;20220;-76
2022/06/16 05:20:03;;;;;;;4.20;3.80;;;;;;;13.74;79.52;100516.22;5042542;28;20194;-76
2022/06/16 05:22:29;;;;;;;6.37;5.00;;;;;;;13.72;78.99;100538.16;5048137;28;20209;-76
2022/06/16 05:24:56;;;;;;;5.57;4.37;;;;;;;13.93;78.10;100552.38;5047162;28;20729;-76
2022/06/16 05:27:22;;;;;;;4.37;4.07;;;;;;;13.84;77.30;100582.38;5042721;28;20287;-76
2022/06/16 05:29:49;;;;;;;4.40;4.10;;;;;;;13.86;77.06;100599.78;5043383;28;20213;-76
2022/06/16 05:32:15;;;;;;;4.63;4.20;;;;;;;14.07;76.44;100621.03;5044508;28;20207;-76
2022/06/16 05:34:42;;;;;;;4.23;3.67;;;;;;;14.17;75.63;100635.63;5044242;28;20200;-76
2022/06/16 05:37:10;;;;;;;3.97;3.60;;;;;;;14.32;75.51;100654.44;5041632;28;20284;-75
2022/06/16 05:39:36;;;;;;;5.30;4.67;;;;;;;14.26;74.70;100690.47;5043209;28;20249;-76
2022/06/16 05:42:03;;;;;;;4.30;3.90;;;;;;;14.38;75.54;100672.63;5044644;28;20211;-76
2022/06/16 05:44:30;;;;;;;6.10;4.03;;;;;;;14.40;74.72;100695.28;5043570;28;20198;-76
2022/06/16 05:46:56;;;;;;;5.17;3.87;;;;;;;14.43;74.52;100697.84;5041482;28;20277;-76
2022/06/16 05:49:23;;;;;;;4.70;4.30;;;;;;;14.41;74.71;100711.91;5042027;28;20253;-76
2022/06/16 05:51:49;;;;;;;7.10;4.20;;;;;;;14.49;74.25;100720.44;5045931;28;20249;-75
2022/06/16 05:54:17;;;;;;;4.60;4.20;;;;;;;14.33;74.81;100735.81;5046922;28;20203;-76
2022/06/16 05:56:44;;;;;;;4.50;4.07;;;;;;;14.39;75.38;100722.47;5042188;28;20224;-75
2022/06/16 05:59:11;;;;;;;4.97;4.57;;;;;;;14.34;75.40;100713.00;5040578;28;20210;-77
2022/06/16 06:01:38;;;;;;;4.83;4.10;;;;;;;14.47;74.42;100727.50;5041790;28;20231;-76
2022/06/16 06:04:05;;;;;;;4.90;4.40;;;;;;;14.46;74.65;100723.16;5042362;28;20207;-76
2022/06/16 06:06:31;;;;;;;5.50;5.00;;;;;;;14.64;73.84;100737.50;5042893;28;20962;-76
2022/06/16 06:17:19;;;;;;;4.70;4.30;;;;;;;14.76;73.97;100739.75;5043490;28;20235;-76
2022/06/16 06:19:45;;;;;;;5.93;4.10;;;;;;;14.82;73.53;100768.47;5041378;28;20197;-76
2022/06/16 06:22:14;;;;;;;7.00;4.50;;;;;;;14.96;73.46;100756.66;5047686;28;20692;-76
2022/06/16 06:24:42;;;;;;;7.20;4.37;;;;;;;15.02;73.41;100769.59;5046632;28;20270;-76
2022/06/16 06:27:15;;;;;;;4.77;4.10;;;;;;;15.04;72.39;100789.69;5043214;28;20274;-76
2022/06/16 06:29:43;;;;;;;5.57;4.60;;;;;;;15.00;73.33;100785.41;5051850;28;20203;-76
2022/06/16 06:32:10;;;;;;;5.20;4.43;;;;;;;15.04;73.16;100800.22;5052059;28;20273;-77
2022/06/16 06:34:37;;;;;;;6.13;3.97;;;;;;;15.21;73.09;100788.28;5051928;28;20242;-76
2022/06/16 06:37:05;;;;;;;8.03;4.63;;;;;;;15.07;72.96;100786.97;5051644;28;20238;-76
2022/06/16 06:39:32;;;;;;;5.83;4.63;;;;;;;15.29;72.88;100787.13;5051615;28;20307;-76
2022/06/16 06:41:59;;;;;;;5.73;4.73;;;;;;;15.28;72.13;100801.19;5051040;28;20350;-76
2022/06/16 06:44:27;;;;;;;5.17;4.67;;;;;;;15.38;73.27;100782.47;5051766;28;20202;-76
2022/06/16 06:46:53;;;;;;;6.77;4.43;;;;;;;15.42;72.16;100805.13;5051770;28;20232;-76
2022/06/16 06:49:20;;;;;;;6.60;5.07;;;;;;;15.61;72.74;100800.97;5051045;28;20234;-76
2022/06/16 06:51:47;;;;;;;6.03;4.93;;;;;;;15.56;71.36;100829.22;5050915;28;20289;-76
2022/06/16 06:54:14;;;;;;;4.43;4.03;;;;;;;15.67;70.29;100868.31;5051210;28;20543;-76
2022/06/16 06:56:41;;;;;;;6.33;4.03;;;;;;;15.67;70.62;100894.63;5051557;28;20235;-76
2022/06/16 06:59:13;;;;;;;4.83;4.10;;;;;;;15.66;70.36;100895.56;5051115;28;20253;-76
2022/06/16 07:01:41;;;;;;;4.20;3.80;;;;;;;15.84;70.46;100891.50;5051687;28;20193;-76
2022/06/16 07:04:07;;;;;;;5.13;3.97;;;;;;;16.03;70.06;100881.19;5051426;28;20204;-76
2022/06/16 07:06:34;;;;;;;4.57;4.23;;;;;;;16.18;68.58;100914.03;5051562;28;20228;-77
2022/06/16 07:09:01;;;;;;;5.20;4.10;;;;;;;16.14;67.16;100988.81;5051184;28;20208;-76
2022/06/16 07:11:27;;;;;;;5.10;4.60;;;;;;;16.02;66.70;101003.25;5051702;28;20265;-77
2022/06/16 07:13:54;;;;;;;4.00;3.67;;;;;;;16.14;67.57;101002.84;5051702;28;20208;-76
2022/06/16 07:16:21;;;;;;;5.33;4.47;;;;;;;16.01;67.57;101004.13;5051130;28;20232;-76
2022/06/16 07:18:49;;;;;;;6.97;4.00;;;;;;;16.26;67.39;100980.50;5051470;28;20232;-76
2022/06/16 07:21:15;;;;;;;4.73;3.70;;;;;;;16.30;66.12;100999.69;5052122;28;20214;-76
2022/06/16 07:23:42;;;;;;;3.93;3.63;;;;;;;16.41;66.44;101015.97;5054996;28;20212;-76
2022/06/16 07:26:09;;;;;;;4.60;4.20;;;;;;;16.54;66.01;101027.84;5055294;28;20290;-76
2022/06/16 07:28:36;;;;;;;5.07;4.27;;;;;;;16.56;66.48;101041.81;5055569;28;20208;-76
2022/06/16 07:31:02;;;;;;;3.70;3.40;;;;;;;16.59;66.39;101027.66;5055450;28;20219;-76
2022/06/16 07:33:29;;;;;;;3.17;2.97;;;;;;;16.73;65.40;101040.38;5055340;28;20204;-76
2022/06/16 07:35:57;;;;;;;5.27;4.40;;;;;;;16.83;65.50;101050.59;5055430;28;20236;-77
2022/06/16 07:38:25;;;;;;;5.17;4.00;;;;;;;16.93;64.33;101051.13;5055137;28;20228;-76
2022/06/16 07:41:30;;;;;;;5.20;3.67;;;;;;;17.11;62.45;101112.06;5055221;28;20219;-76
2022/06/16 07:43:38;;;;;;;4.37;3.13;;;;;;;17.24;63.38;101126.53;5049062;28;20205;-76
2022/06/16 07:46:05;;;;;;;3.83;3.27;;;;;;;17.32;60.64;101142.94;5045470;28;20706;-76
2022/06/16 07:48:31;;;;;;;3.87;3.47;;;;;;;17.40;60.44;101196.34;5044274;28;20721;-76
2022/06/16 07:50:59;;;;;;;3.40;3.10;;;;;;;17.54;61.19;101208.16;5049119;28;20298;-76
2022/06/16 07:53:26;;;;;;;4.67;2.93;;;;;;;17.69;61.45;101204.97;5054411;28;20262;-76
2022/06/16 07:55:52;;;;;;;4.13;3.00;;;;;;;17.78;59.27;101220.50;5054471;28;20639;-76
2022/06/16 07:58:19;;;;;;;3.67;2.63;;;;;;;17.84;58.94;101259.91;5054842;28;20264;-76
2022/06/16 08:00:45;;;;;;;3.17;2.73;;;;;;;17.79;60.34;101268.88;5054406;28;20215;-76
2022/06/16 08:03:12;;;;;;;3.60;3.00;;;;;;;17.84;61.20;101238.78;5054598;28;20266;-76
2022/06/16 08:05:38;;;;;;;3.87;3.00;;;;;;;17.97;60.12;101218.06;5054771;28;20262;-76
2022/06/16 08:08:07;;;;;;;5.17;2.93;;;;;;;17.96;58.66;101248.03;5054777;28;20213;-76
2022/06/16 08:10:35;;;;;;;3.10;2.77;;;;;;;17.98;58.15;101295.53;5054045;28;20213;-76
2022/06/16 08:13:02;;;;;;;3.47;3.13;;;;;;;18.09;58.11;101309.22;5054768;28;20251;-76
2022/06/16 08:15:28;;;;;;;5.43;2.97;;;;;;;18.16;57.81;101310.72;5054386;28;20208;-76
2022/06/16 08:17:57;;;;;;;4.20;2.80;;;;;;;18.08;57.15;101319.81;5054492;28;20232;-76
2022/06/16 08:20:24;;;;;;;3.63;2.60;;;;;;;18.11;58.95;101340.88;5054205;28;20209;-76
2022/06/16 08:22:50;;;;;;;3.17;2.53;;;;;;;18.21;57.30;101319.31;5054330;28;20212;-76
2022/06/16 08:25:19;;;;;;;3.07;2.67;;;;;;;18.22;57.17;101330.78;5054118;28;20315;-76
2022/06/16 08:27:48;;;;;;;4.00;3.20;;;;;;;18.28;57.20;101329.69;5054374;28;20294;-76
2022/06/16 08:30:17;;;;;;;6.57;3.30;;;;;;;18.37;57.05;101326.69;5053957;28;20296;-76
2022/06/16 08:32:44;;;;;;;4.50;2.60;;;;;;;18.35;56.32;101341.75;5053827;28;20208;-76
2022/06/16 08:35:12;;;;;;;3.80;3.03;;;;;;;18.29;54.77;101355.19;5053816;28;20204;-76
2022/06/16 08:37:38;;;;;;;4.50;2.53;;;;;;;18.30;54.90;101399.22;5054015;28;20233;-76
2022/06/16 08:40:07;;;;;;;3.60;2.90;;;;;;;18.36;55.29;101381.34;5053695;28;20240;-76
2022/06/16 08:42:41;;;;;;;3.63;2.60;;;;;;;18.48;55.34;101372.09;5053882;28;20224;-76
2022/06/16 08:45:21;;;;;;;2.93;2.57;;;;;;;18.58;55.62;101365.56;5054170;28;20293;-76
2022/06/16 08:47:53;;;;;;;2.53;2.30;;;;;;;18.66;56.03;101386.44;5053746;28;20233;-76
2022/06/16 08:50:29;;;;;;;3.63;2.30;;;;;;;18.80;54.97;101389.44;5053898;28;20204;-77
2022/06/16 08:53:07;;;;;;;3.63;2.87;;;;;;;18.83;53.67;101414.94;5053492;28;20267;-76
2022/06/16 08:55:39;;;;;;;3.43;2.67;;;;;;;18.95;54.26;101424.16;5053672;28;20215;-76
2022/06/16 08:58:18;;;;;;;3.80;2.97;;;;;;;19.03;53.50;101438.84;5053281;28;20278;-76
2022/06/16 09:00:47;;;;;;;3.33;2.50;;;;;;;19.12;53.08;101439.41;5053611;28;20212;-76
2022/06/16 09:03:28;;;;;;;3.23;2.70;;;;;;;19.15;54.34;101442.81;5053307;28;20336;-76
2022/06/16 09:05:59;;;;;;;3.93;2.57;;;;;;;19.19;54.42;101427.66;5053837;28;20221;-77
2022/06/16 09:08:41;;;;;;;3.30;3.00;;;;;;;19.25;52.68;101423.00;5053422;28;20604;-76
2022/06/16 09:11:14;;;;;;;4.13;2.97;;;;;;;19.30;53.93;101453.72;5053562;28;20204;-76
2022/06/16 09:14:08;;;;;;;3.07;2.83;;;;;;;19.34;53.36;101450.00;5053505;28;20259;-76
2022/06/16 09:16:45;;;;;;;3.87;3.53;;;;;;;19.42;53.17;101424.09;5053180;28;20228;-76
2022/06/16 09:19:34;;;;;;;3.33;2.20;;;;;;;19.45;52.95;101439.88;5052933;28;20231;-76
2022/06/16 09:22:13;;;;;;;3.13;2.67;;;;;;;19.52;52.16;101459.88;5053453;28;20201;-76
2022/06/16 09:25:00;;;;;;;4.50;2.80;;;;;;;19.62;52.72;101470.97;5052658;28;20778;-76
2022/06/16 09:27:34;;;;;;;3.13;2.70;;;;;;;19.74;52.48;101475.81;5052905;28;20299;-77
2022/06/16 09:30:08;;;;;;;4.00;3.10;;;;;;;19.67;51.87;101468.16;5053018;28;20190;-76
2022/06/16 09:32:39;;;;;;;3.03;2.67;;;;;;;19.80;53.09;101480.88;5053383;28;20276;-76
2022/06/16 09:35:12;;;;;;;3.33;2.80;;;;;;;19.85;52.25;101459.47;5052996;28;20201;-76
2022/06/16 09:37:45;;;;;;;2.83;2.63;;;;;;;19.76;51.70;101488.97;5043159;28;20225;-77
2022/06/16 09:40:15;;;;;;;3.47;2.47;;;;;;;19.36;51.80;101504.63;5042669;28;20194;-76
2022/06/16 09:42:45;;;;;;;3.87;3.07;;;;;;;19.36;51.67;101494.03;5046182;28;20205;-76
2022/06/16 09:45:19;;;;;;;5.27;3.23;;;;;;;19.23;50.78;101488.38;5043056;28;20199;-76
2022/06/16 09:47:50;;;;;;;2.90;2.70;;;;;;;19.19;51.73;101522.97;5047773;28;20794;-76
2022/06/16 09:50:27;;;;;;;4.83;2.60;;;;;;;19.29;52.46;101512.88;5052192;28;20729;-76
2022/06/16 09:52:59;;;;;;;4.40;3.13;;;;;;;19.33;52.31;101480.94;5052115;28;20729;-76
2022/06/16 09:55:33;;;;;;;3.33;3.00;;;;;;;19.35;52.14;101479.09;5051135;28;20223;-76
2022/06/16 09:58:04;;;;;;;2.80;2.60;;;;;;;19.55;53.60;101491.53;5043198;28;20204;-76
2022/06/16 10:00:35;;;;;;;4.47;2.77;;;;;;;19.83;51.82;101466.63;5041759;28;20798;-76
2022/06/16 10:03:16;;;;;;;3.07;2.60;;;;;;;20.07;50.43;101498.34;5040929;28;20190;-76
2022/06/16 10:05:50;;;;;;;4.63;2.80;;;;;;;20.27;50.85;101530.16;5035432;28;20276;-76
2022/06/16 10:08:22;;;;;;;3.27;2.97;;;;;;;20.14;50.28;101537.78;5032589;28;20210;-76
2022/06/16 10:10:56;;;;;;;3.17;2.63;;;;;;;20.12;50.42;101538.75;5031907;28;20243;-76
2022/06/16 10:13:29;;;;;;;3.90;2.80;;;;;;;20.30;50.64;101535.34;5033049;28;20205;-77
2022/06/16 10:16:03;;;;;;;2.97;2.40;;;;;;;20.56;50.38;101526.28;5032519;28;20256;-77
2022/06/16 10:18:29;;;;;;;4.40;2.60;;;;;;;20.76;49.99;101562.59;5032299;28;20283;-76
2022/06/16 10:20:56;;;;;;;3.83;3.17;;;;;;;20.93;50.26;101566.28;5033149;28;20214;-76
2022/06/16 10:23:27;;;;;;;2.10;1.90;;;;;;;20.89;49.79;101570.00;5051570;28;20735;-76
2022/06/16 10:25:56;;;;;;;2.67;2.13;;;;;;;20.80;49.52;101603.13;5051609;28;20230;-76
2022/06/16 10:28:28;;;;;;;3.47;2.63;;;;;;;20.93;49.52;101598.13;5052131;28;20566;-76
2022/06/16 10:30:55;;;;;;;2.87;2.67;;;;;;;20.72;47.98;101597.28;5051911;28;20193;-76
2022/06/16 10:33:25;;;;;;;2.77;2.57;;;;;;;20.34;47.45;101611.19;5052040;28;20331;-76
2022/06/16 10:35:56;;;;;;;2.87;2.67;;;;;;;20.66;49.00;101632.06;5051825;28;20639;-76
2022/06/16 10:38:33;;;;;;;2.83;2.50;;;;;;;20.85;50.13;101597.59;5051657;28;20228;-76
2022/06/16 10:41:03;;;;;;;5.47;2.73;;;;;;;20.85;48.01;101582.53;5051458;28;20201;-76
2022/06/16 10:43:31;;;;;;;4.00;2.40;;;;;;;20.62;49.25;101610.09;5051810;28;20206;-76
2022/06/16 10:46:03;;;;;;;4.20;2.87;;;;;;;20.64;48.83;101597.63;4352884;28;10000730;-76
2022/06/16 10:48:35;;;;;;;2.50;2.30;;;;;;;20.79;49.20;101618.19;5048711;28;20253;-76
2022/06/16 10:51:11;;;;;;;5.70;2.80;;;;;;;20.94;50.18;101618.47;5048499;28;20746;-76
2022/06/16 10:53:41;;;;;;;2.90;2.57;;;;;;;21.11;48.75;101597.34;5048769;28;20207;-76
2022/06/16 10:56:12;;;;;;;3.43;2.60;;;;;;;20.96;48.28;101609.47;5046886;28;20225;-76
2022/06/16 10:58:48;;;;;;;3.60;3.23;;;;;;;20.48;49.12;101645.13;5047642;28;21011;-75
2022/06/16 11:01:18;;;;;;;4.23;3.17;;;;;;;20.59;49.09;101615.50;5048832;28;20264;-76
2022/06/16 11:03:48;;;;;;;4.00;2.83;;;;;;;20.66;49.23;101619.63;5048939;28;20207;-76
2022/06/16 11:06:17;;;;;;;3.30;2.60;;;;;;;21.03;49.32;101607.44;5048855;28;20249;-76
2022/06/16 11:08:46;;;;;;;3.00;2.53;;;;;;;21.15;48.79;101628.13;5048307;28;20683;-76
2022/06/16 11:11:18;;;;;;;4.30;2.60;;;;;;;21.32;48.23;101639.78;5047978;28;20212;-76
2022/06/16 11:13:48;;;;;;;2.57;2.37;;;;;;;21.46;47.07;101640.06;5048753;28;20262;-76
2022/06/16 11:16:26;;;;;;;2.60;2.40;;;;;;;21.58;47.14;101671.38;5048655;28;20320;-75
2022/06/16 11:18:58;;;;;;;3.30;2.43;;;;;;;21.23;47.35;101683.56;5048046;28;20225;-75
2022/06/16 11:21:28;;;;;;;3.73;2.30;;;;;;;21.59;48.45;101664.28;5048053;28;20274;-75
2022/06/16 11:23:57;;;;;;;8.23;2.20;;;;;;;21.85;46.73;101654.25;5048453;28;20202;-75
2022/06/16 11:26:28;;;;;;;2.63;2.20;;;;;;;21.71;46.23;101689.44;5048538;28;20228;-77
2022/06/16 11:28:57;;;;;;;3.53;2.40;;;;;;;21.88;45.29;101705.47;5048197;28;20237;-76
2022/06/16 11:31:26;;;;;;;3.73;2.10;;;;;;;21.95;44.76;101722.88;5048520;28;20213;-76
2022/06/16 11:34:08;;;;;;;2.33;2.17;;;;;;;22.30;44.72;101759.41;5048893;28;20262;-76
2022/06/16 11:36:52;;;;;;;3.20;1.90;;;;;;;23.49;43.67;101741.13;5048504;28;20233;-77
2022/06/16 11:39:26;;;;;;;3.47;1.93;;;;;;;24.47;40.21;101788.34;5048382;28;20214;-77
2022/06/16 11:41:54;;;;;;;4.63;2.70;;;;;;;23.15;41.35;101881.38;5048190;28;20674;-77
2022/06/16 11:44:39;;;;;;;3.23;2.90;;;;;;;23.69;40.27;101868.91;5047982;28;20652;-76
2022/06/16 11:47:13;;;;;;;2.60;2.13;;;;;;;24.52;39.94;101893.94;5047959;28;20289;-77
2022/06/16 11:49:46;;;;;;;2.20;1.97;;;;;;;25.09;39.11;101901.44;5047832;28;20190;-76
2022/06/16 11:52:20;;;;;;;3.33;1.80;;;;;;;24.76;39.24;101936.28;5047965;28;20216;-77
2022/06/16 11:54:59;;;;;;;2.27;2.03;;;;;;;26.04;35.76;101894.19;5040265;28;20201;-77